Time;durP1;ratioP1;P1;durP2;ratioP2;P2;SDS_P1;SDS_P2;PMS_P1;PMS_P2;Temp;Humidity;BMP_temperature;BMP_pressure;BME280_temperature;BME280_humidity;BME280_pressure;Samples;Min_cycle;Max_cycle;Signal;HPM_P1;HPM_P2
2022/12/10 00:00:34;;;;;;;0.90;0.90;;;;;;;;;;6212552;23;20184;-78
2022/12/10 00:03:01;;;;;;;0.90;0.90;;;;;;;;;;6210108;22;20714;-78
2022/12/10 00:05:27;;;;;;;0.80;0.80;;;;;;;;;;6212736;23;20148;-78
2022/12/10 00:07:53;;;;;;;0.80;0.80;;;;;;;;;;6208997;23;20167;-78
2022/12/10 00:10:19;;;;;;;0.80;0.80;;;;;;;;;;6209428;23;20214;-78
2022/12/10 00:12:45;;;;;;;0.90;0.90;;;;;;;;;;6208802;22;20680;-78
2022/12/10 00:15:10;;;;;;;0.90;0.90;;;;;;;;;;6209452;23;20287;-77
2022/12/10 00:17:37;;;;;;;0.83;0.83;;;;;;;;;;6209052;23;20162;-78
2022/12/10 00:20:03;;;;;;;0.90;0.90;;;;;;;;;;6209508;23;20161;-78
2022/12/10 00:22:29;;;;;;;1.00;1.00;;;;;;;;;;6208747;22;20553;-78
2022/12/10 00:24:55;;;;;;;0.97;0.97;;;;;;;;;;6209463;23;20189;-78
2022/12/10 00:27:21;;;;;;;0.90;0.90;;;;;;;;;;6208789;22;20195;-76
2022/12/10 00:29:47;;;;;;;0.90;0.90;;;;;;;;;;6209768;23;20162;-76
2022/12/10 00:32:13;;;;;;;0.87;0.87;;;;;;;;;;6208848;23;20191;-76
2022/12/10 00:34:39;;;;;;;0.90;0.90;;;;;;;;;;6209675;22;20174;-76
2022/12/10 00:37:05;;;;;;;0.80;0.80;;;;;;;;;;6209939;23;20208;-76
2022/12/10 00:39:31;;;;;;;0.83;0.83;;;;;;;;;;6210128;23;20156;-76
2022/12/10 00:41:56;;;;;;;0.87;0.87;;;;;;;;;;6209456;23;20189;-76
2022/12/10 00:44:22;;;;;;;0.90;0.90;;;;;;;;;;6209747;22;20167;-76
2022/12/10 00:46:48;;;;;;;0.90;0.90;;;;;;;;;;6209790;23;20163;-75
2022/12/10 00:49:14;;;;;;;0.80;0.80;;;;;;;;;;6209764;23;20171;-73
2022/12/10 00:51:41;;;;;;;0.90;0.90;;;;;;;;;;6209739;23;20601;-75
2022/12/10 00:54:07;;;;;;;0.90;0.90;;;;;;;;;;6208685;22;20626;-75
2022/12/10 00:56:34;;;;;;;0.80;0.80;;;;;;;;;;6209917;23;20464;-76
2022/12/10 00:59:01;;;;;;;0.90;0.90;;;;;;;;;;6209330;23;20152;-74
2022/12/10 01:01:37;;;;;;;0.80;0.80;;;;;;;;;;6209305;23;20586;-75
2022/12/10 01:04:06;;;;;;;0.90;0.90;;;;;;;;;;6208510;22;20179;-75
2022/12/10 01:06:33;;;;;;;0.90;0.90;;;;;;;;;;6209617;23;20151;-75
2022/12/10 01:09:00;;;;;;;0.90;0.90;;;;;;;;;;6209263;23;20237;-75
2022/12/10 01:11:28;;;;;;;0.80;0.80;;;;;;;;;;6209538;23;20200;-75
2022/12/10 01:13:54;;;;;;;0.90;0.90;;;;;;;;;;6208704;22;20195;-75
2022/12/10 01:16:21;;;;;;;0.90;0.90;;;;;;;;;;6208991;23;20273;-75
2022/12/10 01:18:47;;;;;;;0.90;0.90;;;;;;;;;;6209447;23;20220;-75
2022/12/10 01:21:15;;;;;;;0.80;0.80;;;;;;;;;;6209060;23;20606;-74
2022/12/10 01:23:42;;;;;;;0.90;0.90;;;;;;;;;;6208548;22;20181;-74
2022/12/10 01:26:09;;;;;;;0.80;0.80;;;;;;;;;;6207452;23;20152;-75
2022/12/10 01:28:37;;;;;;;0.80;0.80;;;;;;;;;;6209325;23;20144;-75
2022/12/10 01:31:04;;;;;;;0.90;0.90;;;;;;;;;;6209037;23;20500;-75
2022/12/10 01:33:31;;;;;;;0.90;0.90;;;;;;;;;;6208538;22;20284;-75
2022/12/10 01:36:01;;;;;;;0.80;0.80;;;;;;;;;;6209410;23;20235;-75
2022/12/10 01:38:27;;;;;;;0.83;0.83;;;;;;;;;;6208987;23;20697;-75
2022/12/10 01:40:53;;;;;;;0.93;0.93;;;;;;;;;;6209228;23;20171;-75
2022/12/10 01:43:19;;;;;;;0.90;0.90;;;;;;;;;;6208620;22;20675;-75
2022/12/10 01:45:45;;;;;;;0.80;0.80;;;;;;;;;;6208882;23;20204;-75
2022/12/10 01:48:11;;;;;;;0.80;0.80;;;;;;;;;;6210166;23;20165;-74
2022/12/10 01:50:38;;;;;;;0.80;0.80;;;;;;;;;;6210595;23;20158;-75
2022/12/10 01:53:04;;;;;;;1.00;1.00;;;;;;;;;;6209605;22;20577;-75
2022/12/10 01:55:47;;;;;;;0.87;0.87;;;;;;;;;;6210399;23;20201;-76
2022/12/10 01:58:15;;;;;;;0.93;0.93;;;;;;;;;;6210295;23;20523;-75
2022/12/10 02:00:44;;;;;;;0.80;0.80;;;;;;;;;;6210177;23;20182;-76
2022/12/10 02:03:13;;;;;;;0.90;0.90;;;;;;;;;;6210098;22;20167;-76
2022/12/10 02:05:42;;;;;;;0.90;0.90;;;;;;;;;;6210597;23;20181;-75
2022/12/10 02:08:08;;;;;;;0.80;0.80;;;;;;;;;;6210587;23;20170;-75
2022/12/10 02:11:00;;;;;;;0.90;0.90;;;;;;;;;;6210416;23;20151;-75
2022/12/10 02:13:36;;;;;;;0.90;0.90;;;;;;;;;;6210488;22;20195;-75
2022/12/10 02:16:08;;;;;;;0.90;0.90;;;;;;;;;;6210616;23;20174;-75
2022/12/10 02:18:37;;;;;;;0.90;0.90;;;;;;;;;;6210476;23;20509;-76
2022/12/10 02:21:24;;;;;;;0.80;0.80;;;;;;;;;;6210520;23;20175;-75
2022/12/10 02:23:52;;;;;;;0.90;0.90;;;;;;;;;;6209139;22;20171;-75
2022/12/10 02:26:25;;;;;;;0.90;0.90;;;;;;;;;;6210252;23;20205;-75
2022/12/10 02:28:55;;;;;;;1.00;1.00;;;;;;;;;;6210319;23;20187;-74
2022/12/10 02:31:23;;;;;;;0.90;0.90;;;;;;;;;;6210597;23;20209;-75
2022/12/10 02:33:52;;;;;;;1.00;1.00;;;;;;;;;;6209638;22;20252;-75
2022/12/10 02:36:18;;;;;;;0.90;0.90;;;;;;;;;;6210512;23;20174;-75
2022/12/10 02:38:45;;;;;;;0.90;0.90;;;;;;;;;;6209955;23;20151;-75
2022/12/10 02:41:15;;;;;;;0.90;0.90;;;;;;;;;;6210432;23;20148;-75
2022/12/10 02:43:41;;;;;;;0.80;0.80;;;;;;;;;;6209327;22;20562;-75
2022/12/10 02:46:07;;;;;;;0.80;0.80;;;;;;;;;;6211426;23;20151;-76
2022/12/10 02:48:34;;;;;;;0.90;0.90;;;;;;;;;;6210164;23;20491;-75
2022/12/10 02:51:00;;;;;;;0.90;0.90;;;;;;;;;;6210460;23;20156;-75
2022/12/10 02:53:26;;;;;;;0.90;0.90;;;;;;;;;;6207852;22;20598;-75
2022/12/10 02:55:52;;;;;;;0.90;0.90;;;;;;;;;;6210296;23;20177;-75
2022/12/10 02:58:28;;;;;;;1.00;1.00;;;;;;;;;;6210017;23;20159;-76
2022/12/10 03:00:59;;;;;;;1.00;1.00;;;;;;;;;;6210294;23;20234;-76
2022/12/10 03:03:44;;;;;;;0.90;0.90;;;;;;;;;;6209706;22;20176;-76
2022/12/10 03:06:16;;;;;;;0.90;0.90;;;;;;;;;;6210451;23;20155;-75
2022/12/10 03:08:44;;;;;;;0.80;0.80;;;;;;;;;;6210000;23;20483;-75
2022/12/10 03:11:14;;;;;;;0.80;0.80;;;;;;;;;;6210017;23;20712;-75
2022/12/10 03:13:59;;;;;;;0.90;0.90;;;;;;;;;;6209569;22;20198;-75
2022/12/10 03:16:26;;;;;;;0.83;0.83;;;;;;;;;;6210455;23;20155;-76
2022/12/10 03:18:55;;;;;;;0.80;0.80;;;;;;;;;;6210801;23;20166;-75
2022/12/10 03:21:21;;;;;;;0.80;0.80;;;;;;;;;;6211383;23;20193;-75
2022/12/10 03:23:48;;;;;;;0.90;0.90;;;;;;;;;;6230058;22;20159;-75
2022/12/10 03:26:14;;;;;;;0.83;0.83;;;;;;;;;;6239845;22;20157;-75
2022/12/10 03:28:43;;;;;;;0.87;0.87;;;;;;;;;;6239836;22;20144;-73
2022/12/10 03:31:12;;;;;;;1.00;1.00;;;;;;;;;;6239770;22;20161;-74
2022/12/10 03:33:39;;;;;;;0.90;0.90;;;;;;;;;;6239489;22;20186;-75
2022/12/10 03:36:07;;;;;;;0.90;0.90;;;;;;;;;;6239102;22;20148;-74
2022/12/10 03:38:33;;;;;;;0.90;0.90;;;;;;;;;;6238976;22;20148;-75
2022/12/10 03:40:59;;;;;;;0.90;0.90;;;;;;;;;;6216533;22;20167;-75
2022/12/10 03:43:25;;;;;;;0.80;0.80;;;;;;;;;;6209747;22;20167;-75
2022/12/10 03:45:51;;;;;;;1.00;1.00;;;;;;;;;;6209867;23;20716;-75
2022/12/10 03:48:17;;;;;;;0.90;0.90;;;;;;;;;;6210175;23;20151;-75
2022/12/10 03:50:43;;;;;;;0.90;0.90;;;;;;;;;;6210114;23;20579;-75
2022/12/10 03:53:09;;;;;;;0.90;0.90;;;;;;;;;;6209250;22;20195;-75
2022/12/10 03:55:35;;;;;;;0.80;0.80;;;;;;;;;;6210105;23;20574;-75
2022/12/10 03:58:01;;;;;;;0.90;0.90;;;;;;;;;;6210096;23;20174;-74
2022/12/10 04:00:27;;;;;;;0.90;0.90;;;;;;;;;;6210053;23;20155;-76
2022/12/10 04:02:53;;;;;;;0.80;0.80;;;;;;;;;;6209698;22;20171;-75
2022/12/10 04:05:19;;;;;;;0.97;0.97;;;;;;;;;;6209728;23;20597;-75
2022/12/10 04:07:45;;;;;;;0.97;0.97;;;;;;;;;;6209999;23;20246;-75
2022/12/10 04:10:12;;;;;;;0.80;0.80;;;;;;;;;;6208722;23;20183;-75
2022/12/10 04:12:38;;;;;;;0.90;0.90;;;;;;;;;;6209282;22;20198;-75
2022/12/10 04:17:49;;;;;;;1.00;1.00;;;;;;;;;;6209761;23;20154;-75
2022/12/10 04:28:28;;;;;;;1.00;1.00;;;;;;;;;;6209760;23;20178;-75
2022/12/10 04:30:54;;;;;;;0.90;0.90;;;;;;;;;;6209868;23;20155;-75
2022/12/10 04:33:20;;;;;;;0.90;0.90;;;;;;;;;;6208916;22;20244;-75
2022/12/10 04:35:46;;;;;;;1.00;1.00;;;;;;;;;;6209855;23;20154;-75
2022/12/10 04:38:12;;;;;;;1.00;1.00;;;;;;;;;;6209875;23;20674;-76
2022/12/10 04:40:38;;;;;;;0.90;0.90;;;;;;;;;;6209876;23;20158;-75
2022/12/10 04:43:04;;;;;;;0.90;0.90;;;;;;;;;;6209432;22;20644;-75
2022/12/10 04:45:30;;;;;;;0.87;0.87;;;;;;;;;;6209912;23;20151;-75
2022/12/10 04:47:56;;;;;;;0.80;0.80;;;;;;;;;;6209824;23;20522;-75
2022/12/10 04:50:22;;;;;;;0.80;0.80;;;;;;;;;;6209338;23;20158;-76
2022/12/10 04:52:48;;;;;;;0.90;0.90;;;;;;;;;;6208899;22;20194;-75
2022/12/10 04:55:16;;;;;;;0.90;0.90;;;;;;;;;;6209627;23;20485;-75
2022/12/10 04:57:42;;;;;;;0.80;0.80;;;;;;;;;;6209774;23;20155;-76
2022/12/10 05:00:09;;;;;;;0.90;0.90;;;;;;;;;;6209598;23;20175;-75
2022/12/10 05:02:34;;;;;;;0.80;0.80;;;;;;;;;;6208661;22;20175;-75
2022/12/10 05:05:00;;;;;;;0.90;0.90;;;;;;;;;;6209564;23;20147;-75
2022/12/10 05:07:26;;;;;;;0.90;0.90;;;;;;;;;;6209174;23;20155;-75
2022/12/10 05:09:52;;;;;;;1.00;1.00;;;;;;;;;;6209667;23;20234;-75
2022/12/10 05:12:18;;;;;;;0.90;0.90;;;;;;;;;;6208859;22;20612;-75
2022/12/10 05:14:44;;;;;;;0.90;0.90;;;;;;;;;;6209754;23;20163;-75
2022/12/10 05:17:10;;;;;;;0.97;0.97;;;;;;;;;;6209454;23;20152;-75
2022/12/10 05:19:36;;;;;;;0.90;0.90;;;;;;;;;;6209623;23;20155;-75
2022/12/10 05:24:47;;;;;;;0.83;0.83;;;;;;;;;;6210623;23;20200;-75
2022/12/10 05:27:13;;;;;;;1.00;1.00;;;;;;;;;;6210225;23;20250;-75
2022/12/10 05:29:38;;;;;;;1.00;1.00;;;;;;;;;;6210732;23;20162;-75
2022/12/10 05:32:05;;;;;;;1.00;1.00;;;;;;;;;;6209963;23;20613;-75
2022/12/10 05:34:31;;;;;;;0.90;0.90;;;;;;;;;;6210231;22;20263;-75
2022/12/10 05:36:57;;;;;;;1.00;1.00;;;;;;;;;;6210726;23;20151;-75
2022/12/10 05:39:23;;;;;;;1.00;1.00;;;;;;;;;;6210673;23;20586;-75
2022/12/10 05:41:49;;;;;;;0.97;0.97;;;;;;;;;;6210665;23;20182;-75
2022/12/10 05:44:15;;;;;;;1.00;1.00;;;;;;;;;;6210006;22;20181;-75
2022/12/10 05:46:41;;;;;;;1.00;1.00;;;;;;;;;;6210614;23;20507;-74
2022/12/10 05:49:07;;;;;;;0.90;0.90;;;;;;;;;;6210196;23;20597;-75
2022/12/10 05:51:34;;;;;;;0.90;0.90;;;;;;;;;;6210563;23;20156;-75
2022/12/10 05:54:01;;;;;;;1.00;1.00;;;;;;;;;;6209997;22;20198;-75
2022/12/10 05:56:27;;;;;;;0.90;0.90;;;;;;;;;;6210379;23;20447;-75
2022/12/10 05:58:55;;;;;;;0.83;0.83;;;;;;;;;;6210747;23;20161;-75
2022/12/10 06:01:22;;;;;;;1.00;1.00;;;;;;;;;;6210688;23;20493;-75
2022/12/10 06:03:49;;;;;;;1.00;1.00;;;;;;;;;;6210306;22;20175;-75
2022/12/10 06:06:20;;;;;;;0.90;0.90;;;;;;;;;;6210950;23;20144;-74
2022/12/10 06:08:46;;;;;;;0.90;0.90;;;;;;;;;;6210589;23;20143;-74
2022/12/10 06:11:12;;;;;;;0.90;0.90;;;;;;;;;;6210695;23;20542;-74
2022/12/10 06:13:38;;;;;;;0.90;0.90;;;;;;;;;;6209688;22;20304;-74
2022/12/10 06:16:05;;;;;;;0.90;0.90;;;;;;;;;;6210520;23;20220;-74
2022/12/10 06:18:31;;;;;;;0.83;0.83;;;;;;;;;;6210421;23;20151;-74
2022/12/10 06:20:57;;;;;;;0.87;0.87;;;;;;;;;;6210534;23;20151;-74
2022/12/10 06:23:23;;;;;;;0.90;0.90;;;;;;;;;;6209810;22;20259;-74
2022/12/10 06:25:49;;;;;;;0.90;0.90;;;;;;;;;;6210813;23;20208;-75
2022/12/10 06:28:15;;;;;;;0.90;0.90;;;;;;;;;;6210033;23;20159;-74
2022/12/10 06:30:41;;;;;;;0.90;0.90;;;;;;;;;;6210460;23;20489;-74
2022/12/10 06:33:08;;;;;;;0.97;0.97;;;;;;;;;;6209125;22;20191;-74
2022/12/10 06:35:34;;;;;;;0.90;0.90;;;;;;;;;;6210518;23;20152;-74
2022/12/10 06:38:00;;;;;;;0.90;0.90;;;;;;;;;;6210191;23;20204;-77
2022/12/10 06:40:26;;;;;;;0.90;0.90;;;;;;;;;;6210399;23;20596;-74
2022/12/10 06:42:52;;;;;;;1.00;1.00;;;;;;;;;;6209217;22;20175;-74
2022/12/10 06:45:18;;;;;;;0.90;0.90;;;;;;;;;;6210372;23;20156;-74
2022/12/10 06:47:44;;;;;;;0.90;0.90;;;;;;;;;;6210245;23;20208;-74
2022/12/10 06:50:10;;;;;;;0.83;0.83;;;;;;;;;;6210350;23;20188;-74
2022/12/10 06:52:36;;;;;;;0.80;0.80;;;;;;;;;;6207592;22;20191;-75
2022/12/10 06:55:02;;;;;;;0.90;0.90;;;;;;;;;;6210388;23;20147;-75
2022/12/10 06:57:28;;;;;;;0.90;0.90;;;;;;;;;;6210258;23;20257;-74
2022/12/10 06:59:54;;;;;;;0.90;0.90;;;;;;;;;;6210306;23;20235;-75
2022/12/10 07:02:20;;;;;;;1.00;1.00;;;;;;;;;;6209589;22;20159;-74
2022/12/10 07:04:46;;;;;;;0.90;0.90;;;;;;;;;;6210206;23;20175;-75
2022/12/10 07:07:12;;;;;;;1.00;1.00;;;;;;;;;;6210304;23;20155;-75
2022/12/10 07:09:38;;;;;;;0.90;0.90;;;;;;;;;;6210193;23;20151;-74
2022/12/10 07:12:04;;;;;;;0.90;0.90;;;;;;;;;;6209288;23;20183;-75
2022/12/10 07:14:30;;;;;;;0.90;0.90;;;;;;;;;;6210238;22;20171;-75
2022/12/10 07:16:56;;;;;;;0.90;0.90;;;;;;;;;;6210305;23;20475;-75
2022/12/10 07:19:22;;;;;;;0.97;0.97;;;;;;;;;;6210938;23;20151;-74
2022/12/10 07:21:48;;;;;;;0.93;0.93;;;;;;;;;;6210919;23;20663;-75
2022/12/10 07:24:16;;;;;;;1.00;1.00;;;;;;;;;;6210736;22;20178;-74
2022/12/10 07:26:43;;;;;;;0.90;0.90;;;;;;;;;;6210336;23;20177;-75
2022/12/10 07:29:14;;;;;;;0.90;0.90;;;;;;;;;;6211365;23;20193;-75
2022/12/10 07:31:40;;;;;;;0.87;0.87;;;;;;;;;;6211544;23;20156;-75
2022/12/10 07:34:06;;;;;;;1.00;1.00;;;;;;;;;;6210754;22;20195;-74
2022/12/10 07:36:32;;;;;;;0.90;0.90;;;;;;;;;;6210357;23;20154;-74
2022/12/10 07:38:58;;;;;;;0.90;0.90;;;;;;;;;;6210215;23;20167;-74
2022/12/10 07:41:25;;;;;;;0.80;0.80;;;;;;;;;;6210241;23;20230;-74
2022/12/10 07:43:51;;;;;;;0.90;0.90;;;;;;;;;;6209425;22;20250;-74
2022/12/10 07:46:27;;;;;;;0.83;0.83;;;;;;;;;;6209810;23;20152;-74
2022/12/10 07:48:53;;;;;;;0.83;0.83;;;;;;;;;;6209762;23;20154;-74
2022/12/10 07:51:20;;;;;;;0.90;0.90;;;;;;;;;;6209981;23;20151;-75
2022/12/10 07:53:46;;;;;;;0.90;0.90;;;;;;;;;;6209133;22;20198;-75
2022/12/10 07:56:12;;;;;;;0.80;0.80;;;;;;;;;;6209658;23;20166;-75
2022/12/10 07:58:41;;;;;;;0.90;0.90;;;;;;;;;;6209371;23;20759;-75
2022/12/10 08:01:11;;;;;;;0.90;0.90;;;;;;;;;;6209747;23;20147;-75
2022/12/10 08:03:37;;;;;;;0.90;0.90;;;;;;;;;;6209413;22;20199;-76
2022/12/10 08:06:07;;;;;;;1.00;1.00;;;;;;;;;;6209991;23;20156;-74
2022/12/10 08:08:34;;;;;;;0.90;0.90;;;;;;;;;;6210052;23;20159;-77
2022/12/10 08:11:01;;;;;;;0.93;0.93;;;;;;;;;;6210358;23;20155;-78
2022/12/10 08:13:27;;;;;;;0.90;0.90;;;;;;;;;;6209463;22;20198;-77
2022/12/10 08:15:53;;;;;;;0.90;0.90;;;;;;;;;;6210265;23;20182;-76
2022/12/10 08:18:19;;;;;;;0.90;0.90;;;;;;;;;;6210700;23;20158;-77
2022/12/10 08:20:45;;;;;;;0.90;0.90;;;;;;;;;;6210007;23;20536;-75
2022/12/10 08:23:11;;;;;;;0.90;0.90;;;;;;;;;;6208725;22;20179;-76
2022/12/10 08:25:37;;;;;;;0.90;0.90;;;;;;;;;;6209439;23;20151;-76
2022/12/10 08:28:03;;;;;;;0.83;0.83;;;;;;;;;;6209337;23;20174;-76
2022/12/10 08:30:30;;;;;;;0.90;0.90;;;;;;;;;;6209717;23;20174;-75
2022/12/10 08:32:56;;;;;;;0.90;0.90;;;;;;;;;;6209157;22;20240;-74
2022/12/10 08:35:22;;;;;;;0.80;0.80;;;;;;;;;;6209698;23;20159;-75
2022/12/10 08:37:48;;;;;;;0.90;0.90;;;;;;;;;;6209355;23;20160;-77
2022/12/10 08:40:14;;;;;;;0.93;0.93;;;;;;;;;;6209946;23;20151;-77
2022/12/10 08:42:40;;;;;;;0.80;0.80;;;;;;;;;;6209694;22;20398;-76
2022/12/10 08:45:06;;;;;;;0.90;0.90;;;;;;;;;;6210248;23;20205;-75
2022/12/10 08:47:32;;;;;;;0.97;0.97;;;;;;;;;;6210417;23;20148;-75
2022/12/10 08:49:58;;;;;;;1.00;1.00;;;;;;;;;;6210078;23;20200;-75
2022/12/10 08:52:24;;;;;;;1.00;1.00;;;;;;;;;;6209408;22;20183;-75
2022/12/10 08:54:50;;;;;;;1.00;1.00;;;;;;;;;;6208484;23;20156;-75
2022/12/10 08:57:16;;;;;;;0.90;0.90;;;;;;;;;;6209594;23;20252;-76
2022/12/10 08:59:42;;;;;;;0.90;0.90;;;;;;;;;;6209921;23;20147;-75
2022/12/10 09:02:11;;;;;;;0.90;0.90;;;;;;;;;;6209182;23;20163;-75
2022/12/10 09:04:38;;;;;;;1.00;1.00;;;;;;;;;;6209599;22;20171;-75
2022/12/10 09:07:05;;;;;;;0.90;0.90;;;;;;;;;;6210070;23;20155;-75
2022/12/10 09:09:32;;;;;;;0.80;0.80;;;;;;;;;;6209465;23;20194;-75
2022/12/10 09:11:58;;;;;;;0.90;0.90;;;;;;;;;;6208942;23;20578;-75
2022/12/10 09:14:24;;;;;;;1.00;1.00;;;;;;;;;;6209538;22;20179;-75
2022/12/10 09:16:50;;;;;;;0.90;0.90;;;;;;;;;;6209817;23;20174;-75
2022/12/10 09:19:16;;;;;;;0.83;0.83;;;;;;;;;;6210171;23;20533;-75
2022/12/10 09:21:42;;;;;;;1.00;1.00;;;;;;;;;;6211755;23;20155;-75
2022/12/10 09:24:09;;;;;;;0.90;0.90;;;;;;;;;;6209689;22;20175;-76
2022/12/10 09:26:35;;;;;;;0.80;0.80;;;;;;;;;;6209646;23;20171;-75
2022/12/10 09:29:01;;;;;;;1.00;1.00;;;;;;;;;;6209568;23;20151;-75
2022/12/10 09:31:27;;;;;;;0.80;0.80;;;;;;;;;;6209252;23;20654;-75
2022/12/10 09:33:54;;;;;;;0.80;0.80;;;;;;;;;;6208136;22;20221;-75
2022/12/10 09:36:20;;;;;;;0.90;0.90;;;;;;;;;;6209249;23;20229;-75
2022/12/10 09:38:47;;;;;;;1.00;1.00;;;;;;;;;;6209354;23;20162;-75
2022/12/10 09:41:13;;;;;;;0.97;0.97;;;;;;;;;;6209009;23;20144;-76
2022/12/10 09:44:02;;;;;;;0.90;0.90;;;;;;;;;;6208979;22;20182;-76
2022/12/10 09:46:28;;;;;;;1.00;1.00;;;;;;;;;;6212432;23;20175;-75
2022/12/10 09:49:12;;;;;;;1.00;1.00;;;;;;;;;;6209175;23;20662;-74
2022/12/10 09:51:38;;;;;;;1.00;1.00;;;;;;;;;;6209104;23;20218;-75
2022/12/10 09:54:12;;;;;;;0.90;0.90;;;;;;;;;;6208488;22;20199;-75
2022/12/10 09:56:39;;;;;;;1.00;1.00;;;;;;;;;;6208741;23;20579;-75
2022/12/10 09:59:16;;;;;;;0.90;0.90;;;;;;;;;;6207539;23;20208;-75
2022/12/10 10:01:43;;;;;;;1.00;1.00;;;;;;;;;;6208053;23;20581;-74
2022/12/10 10:04:09;;;;;;;0.90;0.90;;;;;;;;;;6208181;22;20202;-75
2022/12/10 10:06:35;;;;;;;0.90;0.90;;;;;;;;;;6208471;23;20156;-75
2022/12/10 10:09:03;;;;;;;0.80;0.80;;;;;;;;;;6209775;23;20152;-75
2022/12/10 10:11:30;;;;;;;0.90;0.90;;;;;;;;;;6209949;23;20181;-74
2022/12/10 10:14:25;;;;;;;0.90;0.90;;;;;;;;;;6208930;22;20195;-75
2022/12/10 10:17:02;;;;;;;1.03;1.03;;;;;;;;;;6209918;23;20581;-75
2022/12/10 10:19:30;;;;;;;0.90;0.90;;;;;;;;;;6209907;23;20158;-75
2022/12/10 10:21:56;;;;;;;0.90;0.90;;;;;;;;;;6208940;23;20589;-75
2022/12/10 10:24:25;;;;;;;0.90;0.90;;;;;;;;;;6209959;22;20233;-74
2022/12/10 10:26:52;;;;;;;0.90;0.90;;;;;;;;;;6209739;23;20545;-74
2022/12/10 10:29:20;;;;;;;1.00;1.00;;;;;;;;;;6210425;23;20171;-74
2022/12/10 10:31:46;;;;;;;0.93;0.93;;;;;;;;;;6209915;23;20171;-74
2022/12/10 10:34:21;;;;;;;0.90;0.90;;;;;;;;;;6209771;22;20202;-75
2022/12/10 10:36:47;;;;;;;0.90;0.90;;;;;;;;;;6210573;23;20578;-75
2022/12/10 10:39:16;;;;;;;1.00;1.00;;;;;;;;;;6210759;23;20166;-74
2022/12/10 10:41:43;;;;;;;0.90;0.90;;;;;;;;;;6211057;23;20164;-74
2022/12/10 10:44:19;;;;;;;0.90;0.90;;;;;;;;;;6210936;22;20202;-74
2022/12/10 10:46:47;;;;;;;0.90;0.90;;;;;;;;;;6219050;23;20243;-74
2022/12/10 10:49:22;;;;;;;0.90;0.90;;;;;;;;;;6239153;22;20199;-74
2022/12/10 10:51:48;;;;;;;0.93;0.93;;;;;;;;;;6239229;22;20149;-75
2022/12/10 10:54:33;;;;;;;0.90;0.90;;;;;;;;;;6239078;22;20198;-75
2022/12/10 10:57:02;;;;;;;0.90;0.90;;;;;;;;;;6235927;22;20147;-74
2022/12/10 10:59:28;;;;;;;0.90;0.90;;;;;;;;;;6238270;22;20159;-73
2022/12/10 11:01:55;;;;;;;0.90;0.90;;;;;;;;;;6238208;22;20166;-75
2022/12/10 11:04:36;;;;;;;1.00;1.00;;;;;;;;;;6239131;22;20231;-74
2022/12/10 11:07:03;;;;;;;0.90;0.90;;;;;;;;;;6239700;22;20136;-74
2022/12/10 11:09:30;;;;;;;1.00;1.00;;;;;;;;;;6239381;22;20136;-73
2022/12/10 11:12:07;;;;;;;0.87;0.87;;;;;;;;;;6239159;22;20146;-75
2022/12/10 11:14:38;;;;;;;0.90;0.90;;;;;;;;;;6238593;22;20202;-73
2022/12/10 11:17:10;;;;;;;0.90;0.90;;;;;;;;;;6239212;22;20147;-73
2022/12/10 11:19:41;;;;;;;0.90;0.90;;;;;;;;;;6238465;22;20181;-74
2022/12/10 11:22:20;;;;;;;0.90;0.90;;;;;;;;;;6238379;22;20135;-74
2022/12/10 11:24:47;;;;;;;0.90;0.90;;;;;;;;;;6238501;22;20150;-74
2022/12/10 11:27:17;;;;;;;0.80;0.80;;;;;;;;;;6215249;23;20163;-74
2022/12/10 11:29:48;;;;;;;0.90;0.90;;;;;;;;;;6211926;23;20150;-73
2022/12/10 11:32:17;;;;;;;1.00;1.00;;;;;;;;;;6213275;23;20144;-74
2022/12/10 11:34:51;;;;;;;0.80;0.80;;;;;;;;;;6210402;23;20151;-74
2022/12/10 11:37:17;;;;;;;0.90;0.90;;;;;;;;;;6208822;23;20214;-74
2022/12/10 11:39:44;;;;;;;0.90;0.90;;;;;;;;;;6210323;23;20179;-74
2022/12/10 11:42:36;;;;;;;0.90;0.90;;;;;;;;;;6210048;23;20151;-74
2022/12/10 11:45:10;;;;;;;1.00;1.00;;;;;;;;;;6210584;23;20152;-74
2022/12/10 11:47:48;;;;;;;0.80;0.80;;;;;;;;;;6210406;23;20531;-74
2022/12/10 11:50:14;;;;;;;0.83;0.83;;;;;;;;;;6209508;23;20220;-74
2022/12/10 11:52:40;;;;;;;0.90;0.90;;;;;;;;;;6208375;22;20194;-74
2022/12/10 11:55:31;;;;;;;0.93;0.93;;;;;;;;;;6209983;23;20154;-74
2022/12/10 11:58:09;;;;;;;0.90;0.90;;;;;;;;;;6208642;23;20144;-74
2022/12/10 12:00:55;;;;;;;0.80;0.80;;;;;;;;;;6209994;23;20181;-74
2022/12/10 12:03:40;;;;;;;0.90;0.90;;;;;;;;;;6208699;22;20199;-74
2022/12/10 12:06:22;;;;;;;1.00;1.00;;;;;;;;;;6209992;23;20230;-74
2022/12/10 12:08:48;;;;;;;0.90;0.90;;;;;;;;;;6209647;23;20182;-74
2022/12/10 12:11:29;;;;;;;0.90;0.90;;;;;;;;;;6209900;23;20152;-74
2022/12/10 12:13:56;;;;;;;0.90;0.90;;;;;;;;;;6209287;22;20217;-74
2022/12/10 12:16:26;;;;;;;0.73;0.73;;;;;;;;;;6209963;23;20151;-74
2022/12/10 12:18:56;;;;;;;0.80;0.80;;;;;;;;;;6209492;23;20613;-74
2022/12/10 12:21:22;;;;;;;0.90;0.90;;;;;;;;;;6209731;23;20147;-74
2022/12/10 12:23:51;;;;;;;0.80;0.80;;;;;;;;;;6207943;22;20248;-75
2022/12/10 12:26:32;;;;;;;0.90;0.90;;;;;;;;;;6209605;23;20163;-74
2022/12/10 12:29:10;;;;;;;0.80;0.80;;;;;;;;;;6209815;23;20161;-74
2022/12/10 12:31:39;;;;;;;0.83;0.83;;;;;;;;;;6208821;23;20484;-74
2022/12/10 12:34:07;;;;;;;0.90;0.90;;;;;;;;;;6208817;22;20676;-73
2022/12/10 12:36:36;;;;;;;0.90;0.90;;;;;;;;;;6209516;23;20235;-74
2022/12/10 12:39:05;;;;;;;0.90;0.90;;;;;;;;;;6210108;23;20231;-73
2022/12/10 12:41:54;;;;;;;0.90;0.90;;;;;;;;;;6208988;23;20498;-74
2022/12/10 12:44:40;;;;;;;0.90;0.90;;;;;;;;;;6208064;22;20171;-75
2022/12/10 12:47:19;;;;;;;0.90;0.90;;;;;;;;;;6212764;23;20151;-74
2022/12/10 12:49:46;;;;;;;0.90;0.90;;;;;;;;;;6209339;23;20143;-74
2022/12/10 12:52:37;;;;;;;0.90;0.90;;;;;;;;;;6208902;23;20175;-74
2022/12/10 12:55:06;;;;;;;0.80;0.80;;;;;;;;;;6209322;23;20143;-74
2022/12/10 12:57:35;;;;;;;0.90;0.90;;;;;;;;;;6209800;23;20548;-74
2022/12/10 13:00:04;;;;;;;0.90;0.90;;;;;;;;;;6210219;23;20156;-73
2022/12/10 13:02:46;;;;;;;0.90;0.90;;;;;;;;;;6208688;22;20147;-73
2022/12/10 13:05:17;;;;;;;0.90;0.90;;;;;;;;;;6209474;23;20147;-73
2022/12/10 13:07:43;;;;;;;0.90;0.90;;;;;;;;;;6209382;23;20208;-73
2022/12/10 13:10:17;;;;;;;0.87;0.87;;;;;;;;;;6208999;23;20688;-72
2022/12/10 13:12:52;;;;;;;0.90;0.90;;;;;;;;;;6208722;22;20190;-75
2022/12/10 13:15:37;;;;;;;0.80;0.80;;;;;;;;;;6209210;23;20601;-73
2022/12/10 13:18:13;;;;;;;0.80;0.80;;;;;;;;;;6209189;23;20193;-72
2022/12/10 13:20:45;;;;;;;0.90;0.90;;;;;;;;;;6209459;23;20181;-72
2022/12/10 13:23:26;;;;;;;0.87;0.87;;;;;;;;;;6208293;22;20698;-72
2022/12/10 13:25:54;;;;;;;0.80;0.80;;;;;;;;;;6209398;23;20156;-72
2022/12/10 13:28:26;;;;;;;0.87;0.87;;;;;;;;;;6208993;23;20626;-72
2022/12/10 13:31:09;;;;;;;0.80;0.80;;;;;;;;;;6209428;23;20155;-73
2022/12/10 13:33:50;;;;;;;0.90;0.90;;;;;;;;;;6208428;22;20248;-73
2022/12/10 13:36:35;;;;;;;0.90;0.90;;;;;;;;;;6209273;23;20172;-72
2022/12/10 13:39:07;;;;;;;0.80;0.80;;;;;;;;;;6207651;23;20155;-72
2022/12/10 13:44:38;;;;;;;0.90;0.90;;;;;;;;;;6209418;22;20182;-72
2022/12/10 13:47:10;;;;;;;1.00;1.00;;;;;;;;;;6215375;23;20158;-72
2022/12/10 13:49:48;;;;;;;0.90;0.90;;;;;;;;;;6210497;23;20155;-72
2022/12/10 13:52:17;;;;;;;0.90;0.90;;;;;;;;;;6210213;23;20181;-72
2022/12/10 13:54:48;;;;;;;1.00;1.00;;;;;;;;;;6211008;23;20155;-72
2022/12/10 13:57:20;;;;;;;0.80;0.80;;;;;;;;;;6204320;23;20154;-73
2022/12/10 13:59:55;;;;;;;0.90;0.90;;;;;;;;;;6210318;23;20156;-73
2022/12/10 14:02:29;;;;;;;1.00;1.00;;;;;;;;;;6209645;22;20157;-72
2022/12/10 14:04:55;;;;;;;0.90;0.90;;;;;;;;;;6207561;23;20562;-73
2022/12/10 14:07:22;;;;;;;0.90;0.90;;;;;;;;;;6210054;23;20609;-72
2022/12/10 14:09:53;;;;;;;1.00;1.00;;;;;;;;;;6210047;23;20155;-72
2022/12/10 14:12:22;;;;;;;0.90;0.90;;;;;;;;;;6209124;22;20159;-73
2022/12/10 14:14:52;;;;;;;0.90;0.90;;;;;;;;;;6210123;23;20147;-73
2022/12/10 14:17:21;;;;;;;0.90;0.90;;;;;;;;;;6210023;23;20151;-73
2022/12/10 14:19:48;;;;;;;0.80;0.80;;;;;;;;;;6209692;23;20490;-73
2022/12/10 14:22:17;;;;;;;0.90;0.90;;;;;;;;;;6209179;23;20155;-72
2022/12/10 14:24:44;;;;;;;0.90;0.90;;;;;;;;;;6209943;23;20156;-73
2022/12/10 14:27:13;;;;;;;0.90;0.90;;;;;;;;;;6209701;23;20195;-72
2022/12/10 14:29:43;;;;;;;0.83;0.83;;;;;;;;;;6209558;23;20469;-73
2022/12/10 14:32:30;;;;;;;0.93;0.93;;;;;;;;;;6207075;23;20205;-73
2022/12/10 14:34:57;;;;;;;0.90;0.90;;;;;;;;;;6209441;23;20152;-73
2022/12/10 14:37:27;;;;;;;0.90;0.90;;;;;;;;;;6209935;23;20520;-73
2022/12/10 14:39:53;;;;;;;0.80;0.80;;;;;;;;;;6209983;23;20155;-73
2022/12/10 14:42:19;;;;;;;0.90;0.90;;;;;;;;;;6208515;22;20605;-73
2022/12/10 14:44:47;;;;;;;0.90;0.90;;;;;;;;;;6209592;23;20485;-72
2022/12/10 14:47:16;;;;;;;1.00;1.00;;;;;;;;;;6209665;23;20151;-73
2022/12/10 14:49:43;;;;;;;0.80;0.80;;;;;;;;;;6208361;23;20159;-73
2022/12/10 14:52:11;;;;;;;0.90;0.90;;;;;;;;;;6205245;23;20147;-72
2022/12/10 14:54:37;;;;;;;0.90;0.90;;;;;;;;;;6206007;22;20182;-71
2022/12/10 14:57:08;;;;;;;0.80;0.80;;;;;;;;;;6208822;23;20259;-73
2022/12/10 14:59:42;;;;;;;0.90;0.90;;;;;;;;;;6208658;23;20155;-73
2022/12/10 15:02:14;;;;;;;1.00;1.00;;;;;;;;;;6208915;23;20155;-72
2022/12/10 15:04:43;;;;;;;0.90;0.90;;;;;;;;;;6209589;22;20184;-73
2022/12/10 15:07:15;;;;;;;0.90;0.90;;;;;;;;;;6209140;23;20235;-73
2022/12/10 15:09:41;;;;;;;1.00;1.00;;;;;;;;;;6209506;23;20151;-73